AFR248 LFPG-RPLL
Flight info
| Callsign | AFR248 |
|---|---|
| Flight time | N/A |
| Altitude | 33000 |
| Route | LANVI DCT LUPEN/N0486F350 UM164 UTABA DCT INPUL DCT VATET DCT MOPUG DCT NERDI DCT ASNEL DCT UDROS DCT ABSAX UN743 GAKSU UT310 SIN DCT DELEL/N0481F370 DCT REBLO DCT MATAL T916 SUBUT M747 LUSAL N199 RASAM L88 METKA B476 DARVA/K0911F370 T898 OGOLI N193 SR L163 TISIB L141 DIPAX/K0911F390 L141 KAMUD/K0904S1190 W186 SADAN Y1 OMBON W245 OVRAL B330 DAGDI/K0898S1250 B330 KWE W181 DUDIT A599 POU B330 TAMOT/N0481F410 B330 BIGEX DCT POVAM DCT NOPER V642 NOMAN A461 AVMUP W16 TADEL TADEL3P |
| Aircraft | A359/H-SABDE2E3GHIJ1J2J3J4J5M1P2RWXYZ/LB1D1 |
Departure
| Time | 2026-04-30 20:55 |
|---|---|
| Airport | Charles de Gaulle International Airport (LFPG) |
Arrival
| Time | N/A |
|---|---|
| Airport | Ninoy Aquino International Airport (RPLL) |
| Time | Latitude | Longitude | Altitude | Speed | Heading |
|---|---|---|---|---|---|
| 2026-04-30 20:25 | 49.00207 | 2.58636 | 361 ft | 0 kts | 262° |
| 2026-04-30 20:30 | 49.00207 | 2.58637 | 360 ft | 0 kts | 262° |
| 2026-04-30 20:39 | 49.00208 | 2.58651 | 366 ft | 3 kts | 262° |
| 2026-04-30 20:39 | 49.00210 | 2.58679 | 360 ft | 3 kts | 262° |
| 2026-04-30 20:40 | 49.00228 | 2.58730 | 365 ft | 3 kts | 202° |
| 2026-04-30 20:40 | 49.00245 | 2.58740 | 362 ft | 3 kts | 202° |
| 2026-04-30 20:40 | 49.00262 | 2.58750 | 360 ft | 3 kts | 186° |
| 2026-04-30 20:41 | 49.00290 | 2.58749 | 360 ft | 0 kts | 176° |
| 2026-04-30 20:43 | 49.00287 | 2.58749 | 360 ft | 2 kts | 176° |
| 2026-04-30 20:44 | 49.00157 | 2.58764 | 360 ft | 12 kts | 175° |
| 2026-04-30 20:44 | 49.00084 | 2.58773 | 367 ft | 9 kts | 175° |
| 2026-04-30 20:44 | 49.00028 | 2.58626 | 363 ft | 12 kts | 265° |
| 2026-04-30 20:45 | 49.00013 | 2.58322 | 365 ft | 13 kts | 265° |
| 2026-04-30 20:45 | 49.00006 | 2.58199 | 367 ft | 10 kts | 265° |
| 2026-04-30 20:45 | 49.00000 | 2.58086 | 366 ft | 12 kts | 265° |
| 2026-04-30 20:46 | 48.99975 | 2.57640 | 368 ft | 12 kts | 265° |
| 2026-04-30 20:46 | 48.99969 | 2.57512 | 360 ft | 13 kts | 265° |
| 2026-04-30 20:47 | 48.99952 | 2.57196 | 365 ft | 18 kts | 265° |
| 2026-04-30 20:47 | 48.99940 | 2.57001 | 363 ft | 18 kts | 265° |
| 2026-04-30 20:48 | 48.99922 | 2.56653 | 362 ft | 14 kts | 265° |
| 2026-04-30 20:48 | 48.99914 | 2.56503 | 366 ft | 14 kts | 265° |
| 2026-04-30 20:48 | 48.99906 | 2.56353 | 362 ft | 14 kts | 265° |
| 2026-04-30 20:48 | 48.99898 | 2.56202 | 362 ft | 14 kts | 266° |
| 2026-04-30 20:49 | 48.99891 | 2.56051 | 360 ft | 14 kts | 265° |
| 2026-04-30 20:49 | 48.99898 | 2.55900 | 363 ft | 14 kts | 283° |
| 2026-04-30 20:49 | 48.99927 | 2.55756 | 366 ft | 14 kts | 295° |
| 2026-04-30 20:50 | 48.99905 | 2.55519 | 364 ft | 11 kts | 255° |
| 2026-04-30 20:50 | 48.99884 | 2.55440 | 367 ft | 6 kts | 223° |
| 2026-04-30 20:50 | 48.99847 | 2.55427 | 369 ft | 7 kts | 179° |
| 2026-04-30 20:50 | 48.99786 | 2.55446 | 362 ft | 11 kts | 168° |
| 2026-04-30 20:51 | 48.99709 | 2.55439 | 363 ft | 11 kts | 189° |
| 2026-04-30 20:51 | 48.99590 | 2.55535 | 362 ft | 8 kts | 135° |
| 2026-04-30 20:51 | 48.99585 | 2.55567 | 366 ft | 0 kts | 85° |
| 2026-04-30 20:54 | 48.99586 | 2.55593 | 359 ft | 12 kts | 85° |
| 2026-04-30 20:54 | 48.99608 | 2.55975 | 362 ft | 63 kts | 86° |
| 2026-04-30 20:54 | 48.99656 | 2.56883 | 366 ft | 111 kts | 85° |
| 2026-04-30 20:55 | 48.99815 | 2.59990 | 697 ft | 163 kts | 86° |
| 2026-04-30 20:55 | 48.99885 | 2.61682 | 1328 ft | 159 kts | 89° |
| 2026-04-30 20:55 | 48.99969 | 2.63339 | 1931 ft | 156 kts | 90° |
| 2026-04-30 20:56 | 49.00163 | 2.66685 | 2729 ft | 167 kts | 91° |
| 2026-04-30 20:56 | 49.00259 | 2.68481 | 3027 ft | 172 kts | 91° |
| 2026-04-30 20:56 | 49.00463 | 2.72239 | 3560 ft | 189 kts | 90° |
| 2026-04-30 20:57 | 49.00567 | 2.74312 | 3709 ft | 203 kts | 89° |
| 2026-04-30 20:57 | 49.00659 | 2.76546 | 3863 ft | 219 kts | 93° |
| 2026-04-30 20:57 | 49.00531 | 2.78933 | 4018 ft | 235 kts | 101° |
| 2026-04-30 20:58 | 49.00011 | 2.84163 | 4536 ft | 262 kts | 101° |
| 2026-04-30 20:58 | 48.99726 | 2.86959 | 4922 ft | 272 kts | 100° |
| 2026-04-30 20:58 | 48.99440 | 2.89840 | 5409 ft | 277 kts | 99° |
| 2026-04-30 20:58 | 48.99151 | 2.92743 | 6003 ft | 278 kts | 99° |
| 2026-04-30 20:59 | 48.98675 | 2.97605 | 7039 ft | 279 kts | 99° |
| 2026-04-30 20:59 | 48.98432 | 3.00540 | 7710 ft | 279 kts | 97° |
| 2026-04-30 21:00 | 48.97876 | 3.07405 | 9255 ft | 280 kts | 98° |
| 2026-04-30 21:00 | 48.97468 | 3.12296 | 10290 ft | 283 kts | 98° |
| 2026-04-30 21:01 | 48.96945 | 3.18493 | 10927 ft | 308 kts | 99° |
| 2026-04-30 21:01 | 48.96663 | 3.21806 | 11197 ft | 322 kts | 98° |
| 2026-04-30 21:01 | 48.96062 | 3.28836 | 11733 ft | 347 kts | 98° |
| 2026-04-30 21:02 | 48.95746 | 3.32538 | 12029 ft | 358 kts | 98° |
| 2026-04-30 21:02 | 48.95422 | 3.36336 | 12367 ft | 366 kts | 98° |
| 2026-04-30 21:02 | 48.95088 | 3.40195 | 12864 ft | 369 kts | 98° |
| 2026-04-30 21:02 | 48.94753 | 3.44068 | 13444 ft | 370 kts | 98° |
| 2026-04-30 21:03 | 48.94415 | 3.47967 | 13936 ft | 373 kts | 98° |
| 2026-04-30 21:03 | 48.94071 | 3.51906 | 14369 ft | 377 kts | 98° |
| 2026-04-30 21:03 | 48.93724 | 3.55865 | 14834 ft | 379 kts | 98° |
| 2026-04-30 21:03 | 48.93470 | 3.59866 | 15311 ft | 382 kts | 95° |
| 2026-04-30 21:04 | 48.93285 | 3.63901 | 15778 ft | 384 kts | 95° |
| 2026-04-30 21:04 | 48.93093 | 3.67965 | 16257 ft | 387 kts | 95° |
| 2026-04-30 21:04 | 48.92676 | 3.76175 | 17239 ft | 392 kts | 95° |
| 2026-04-30 21:05 | 48.92457 | 3.80324 | 17704 ft | 395 kts | 95° |
| 2026-04-30 21:05 | 48.92233 | 3.84494 | 18182 ft | 397 kts | 95° |
| 2026-04-30 21:05 | 48.92005 | 3.88688 | 18630 ft | 400 kts | 95° |
| 2026-04-30 21:05 | 48.91773 | 3.92911 | 19063 ft | 401 kts | 96° |
| 2026-04-30 21:06 | 48.91539 | 3.97145 | 19518 ft | 403 kts | 96° |
| 2026-04-30 21:06 | 48.91302 | 4.01399 | 19967 ft | 405 kts | 96° |
| 2026-04-30 21:06 | 48.91063 | 4.05668 | 20436 ft | 406 kts | 96° |
| 2026-04-30 21:06 | 48.90821 | 4.09954 | 20924 ft | 408 kts | 96° |
| 2026-04-30 21:07 | 48.90576 | 4.14258 | 21401 ft | 410 kts | 96° |
| 2026-04-30 21:07 | 48.90292 | 4.18574 | 21877 ft | 411 kts | 99° |
| 2026-04-30 21:07 | 48.89678 | 4.22820 | 22347 ft | 412 kts | 108° |
| 2026-04-30 21:07 | 48.88582 | 4.26842 | 22807 ft | 413 kts | 117° |
| 2026-04-30 21:08 | 48.87214 | 4.30689 | 23273 ft | 415 kts | 119° |
| 2026-04-30 21:08 | 48.85800 | 4.34520 | 23739 ft | 417 kts | 119° |
| 2026-04-30 21:08 | 48.84379 | 4.38367 | 24110 ft | 419 kts | 119° |
| 2026-04-30 21:08 | 48.82950 | 4.42244 | 24470 ft | 422 kts | 119° |
| 2026-04-30 21:09 | 48.81514 | 4.46144 | 24804 ft | 425 kts | 119° |
| 2026-04-30 21:09 | 48.80065 | 4.50081 | 25140 ft | 428 kts | 119° |
| 2026-04-30 21:09 | 48.78628 | 4.53979 | 25473 ft | 431 kts | 119° |
| 2026-04-30 21:09 | 48.77162 | 4.57954 | 25807 ft | 433 kts | 119° |
| 2026-04-30 21:10 | 48.75684 | 4.61952 | 26147 ft | 436 kts | 119° |
| 2026-04-30 21:10 | 48.74177 | 4.66026 | 26481 ft | 439 kts | 119° |
| 2026-04-30 21:10 | 48.72698 | 4.70017 | 26816 ft | 441 kts | 119° |
| 2026-04-30 21:10 | 48.71170 | 4.74133 | 27145 ft | 444 kts | 119° |
| 2026-04-30 21:11 | 48.69652 | 4.78218 | 27469 ft | 447 kts | 119° |
| 2026-04-30 21:11 | 48.68142 | 4.82274 | 27742 ft | 450 kts | 119° |
| 2026-04-30 21:11 | 48.66579 | 4.86465 | 28051 ft | 453 kts | 119° |
| 2026-04-30 21:11 | 48.65025 | 4.90624 | 28377 ft | 455 kts | 119° |
| 2026-04-30 21:12 | 48.63484 | 4.94746 | 28677 ft | 458 kts | 119° |
| 2026-04-30 21:12 | 48.61912 | 4.98944 | 28968 ft | 460 kts | 119° |
| 2026-04-30 21:12 | 48.60309 | 5.03218 | 29263 ft | 462 kts | 119° |
| 2026-04-30 21:12 | 48.58742 | 5.07386 | 29534 ft | 464 kts | 119° |
| 2026-04-30 21:13 | 48.57140 | 5.11645 | 29798 ft | 467 kts | 119° |
| 2026-04-30 21:13 | 48.55531 | 5.15911 | 30051 ft | 469 kts | 119° |
| 2026-04-30 21:13 | 48.53915 | 5.20191 | 30296 ft | 471 kts | 119° |
| 2026-04-30 21:13 | 48.52282 | 5.24494 | 30449 ft | 474 kts | 119° |
| 2026-04-30 21:14 | 48.50641 | 5.28822 | 30675 ft | 476 kts | 119° |
| 2026-04-30 21:14 | 48.49004 | 5.33141 | 31047 ft | 473 kts | 119° |
| 2026-04-30 21:14 | 48.47372 | 5.37440 | 31417 ft | 471 kts | 119° |
| 2026-04-30 21:14 | 48.45745 | 5.41716 | 31735 ft | 470 kts | 119° |
| 2026-04-30 21:15 | 48.44121 | 5.45978 | 32035 ft | 469 kts | 119° |
| 2026-04-30 21:15 | 48.42498 | 5.50227 | 32344 ft | 467 kts | 119° |
| 2026-04-30 21:15 | 48.40877 | 5.54465 | 32622 ft | 466 kts | 119° |
| 2026-04-30 21:15 | 48.39260 | 5.58687 | 32903 ft | 465 kts | 119° |
| 2026-04-30 21:16 | 48.37643 | 5.62896 | 33180 ft | 465 kts | 118° |
| 2026-04-30 21:16 | 48.36016 | 5.67115 | 33234 ft | 468 kts | 118° |
| 2026-04-30 21:16 | 48.33061 | 5.75868 | 33236 ft | 470 kts | 109° |
| 2026-04-30 21:17 | 48.31801 | 5.85429 | 33238 ft | 467 kts | 91° |
| 2026-04-30 21:17 | 48.32183 | 5.95160 | 33239 ft | 468 kts | 84° |
| 2026-04-30 21:18 | 48.32893 | 6.04809 | 33235 ft | 468 kts | 83° |
| 2026-04-30 21:18 | 48.33619 | 6.14515 | 33238 ft | 467 kts | 84° |
| 2026-04-30 21:19 | 48.34307 | 6.24224 | 33238 ft | 467 kts | 84° |
| 2026-04-30 21:19 | 48.34970 | 6.34010 | 33237 ft | 467 kts | 84° |
| 2026-04-30 21:20 | 48.35614 | 6.43656 | 33240 ft | 467 kts | 84° |
| 2026-04-30 21:20 | 48.36252 | 6.53374 | 33241 ft | 467 kts | 84° |
| 2026-04-30 21:21 | 48.36882 | 6.63107 | 33245 ft | 467 kts | 84° |
| 2026-04-30 21:22 | 48.37827 | 6.77703 | 33248 ft | 468 kts | 84° |
| 2026-04-30 21:23 | 48.39049 | 6.97163 | 33258 ft | 466 kts | 84° |
| 2026-04-30 21:23 | 48.39940 | 7.11714 | 33268 ft | 466 kts | 84° |
| 2026-04-30 21:24 | 48.40526 | 7.21422 | 33265 ft | 466 kts | 84° |
| 2026-04-30 21:24 | 48.41103 | 7.31129 | 33273 ft | 466 kts | 84° |
| 2026-04-30 21:25 | 48.41952 | 7.45700 | 33284 ft | 465 kts | 83° |
| 2026-04-30 21:26 | 48.42780 | 7.60245 | 33290 ft | 465 kts | 84° |
| 2026-04-30 21:27 | 48.43235 | 7.74797 | 33712 ft | 463 kts | 93° |
| 2026-04-30 21:27 | 48.42887 | 7.79600 | 34060 ft | 461 kts | 94° |
| 2026-04-30 21:27 | 48.42470 | 7.84375 | 34315 ft | 460 kts | 95° |
| 2026-04-30 21:28 | 48.41543 | 7.93890 | 34669 ft | 459 kts | 96° |
| 2026-04-30 21:28 | 48.41063 | 7.98644 | 34844 ft | 459 kts | 96° |
| 2026-04-30 21:28 | 48.40106 | 8.08132 | 35156 ft | 459 kts | 96° |
| 2026-04-30 21:29 | 48.39629 | 8.12880 | 35284 ft | 459 kts | 96° |
| 2026-04-30 21:30 | 48.37207 | 8.36856 | 35323 ft | 465 kts | 96° |
| 2026-04-30 21:31 | 48.34733 | 8.60844 | 35328 ft | 464 kts | 96° |
| 2026-04-30 21:32 | 48.33219 | 8.75239 | 35330 ft | 465 kts | 96° |
| 2026-04-30 21:32 | 48.32203 | 8.84838 | 35331 ft | 465 kts | 96° |
| 2026-04-30 21:33 | 48.30663 | 8.99230 | 35330 ft | 465 kts | 96° |
| 2026-04-30 21:34 | 48.29625 | 9.08814 | 35330 ft | 464 kts | 95° |
| 2026-04-30 21:34 | 48.28065 | 9.23084 | 35327 ft | 463 kts | 96° |
| 2026-04-30 21:35 | 48.27011 | 9.32630 | 35327 ft | 464 kts | 96° |
| 2026-04-30 21:35 | 48.25949 | 9.42171 | 35327 ft | 464 kts | 96° |
| 2026-04-30 21:36 | 48.24880 | 9.51719 | 35318 ft | 463 kts | 95° |
| 2026-04-30 21:37 | 48.22739 | 9.70748 | 35323 ft | 463 kts | 95° |
| 2026-04-30 21:37 | 48.21656 | 9.80255 | 35317 ft | 463 kts | 95° |
| 2026-04-30 21:38 | 48.20564 | 9.89765 | 35346 ft | 463 kts | 95° |
| 2026-04-30 21:38 | 48.19450 | 9.99220 | 35323 ft | 460 kts | 95° |
| 2026-04-30 21:39 | 48.18357 | 10.08670 | 35319 ft | 460 kts | 95° |
| 2026-04-30 21:39 | 48.17260 | 10.18086 | 35328 ft | 460 kts | 95° |
| 2026-04-30 21:40 | 48.16146 | 10.27525 | 35324 ft | 460 kts | 95° |
| 2026-04-30 21:40 | 48.15023 | 10.36944 | 35345 ft | 458 kts | 95° |
| 2026-04-30 21:41 | 48.13898 | 10.46306 | 35347 ft | 457 kts | 95° |
| 2026-04-30 21:41 | 48.12766 | 10.55667 | 35346 ft | 457 kts | 95° |
| 2026-04-30 21:42 | 48.11629 | 10.65017 | 35348 ft | 457 kts | 95° |
| 2026-04-30 21:42 | 48.10490 | 10.74307 | 35359 ft | 457 kts | 95° |
| 2026-04-30 21:43 | 48.09525 | 10.82120 | 35348 ft | 456 kts | 95° |
| 2026-04-30 21:43 | 48.08170 | 10.93019 | 35352 ft | 456 kts | 95° |
| 2026-04-30 21:44 | 48.07010 | 11.02280 | 35337 ft | 456 kts | 95° |
| 2026-04-30 21:44 | 48.05836 | 11.11594 | 35350 ft | 456 kts | 95° |
| 2026-04-30 21:45 | 48.04847 | 11.19384 | 35356 ft | 455 kts | 95° |
| 2026-04-30 21:45 | 48.03670 | 11.28604 | 35344 ft | 455 kts | 95° |
| 2026-04-30 21:46 | 48.02478 | 11.37874 | 35344 ft | 454 kts | 95° |
| 2026-04-30 21:46 | 48.01278 | 11.47146 | 35351 ft | 455 kts | 95° |
| 2026-04-30 21:47 | 48.00071 | 11.56412 | 35375 ft | 455 kts | 94° |
| 2026-04-30 21:47 | 47.98858 | 11.65650 | 35367 ft | 453 kts | 94° |
| 2026-04-30 21:48 | 47.97641 | 11.74867 | 35372 ft | 452 kts | 94° |
| 2026-04-30 21:48 | 47.96419 | 11.84078 | 35379 ft | 453 kts | 95° |
| 2026-04-30 21:49 | 47.95188 | 11.93286 | 35380 ft | 453 kts | 95° |
| 2026-04-30 21:49 | 47.93950 | 12.02481 | 35385 ft | 452 kts | 94° |
| 2026-04-30 21:50 | 47.92705 | 12.11666 | 35384 ft | 452 kts | 94° |
| 2026-04-30 21:50 | 47.91454 | 12.20840 | 35381 ft | 452 kts | 94° |
| 2026-04-30 21:51 | 47.90196 | 12.30015 | 35387 ft | 452 kts | 95° |
| 2026-04-30 21:51 | 47.88932 | 12.39177 | 35387 ft | 452 kts | 95° |
| 2026-04-30 21:52 | 47.87659 | 12.48339 | 35383 ft | 452 kts | 95° |
| 2026-04-30 21:52 | 47.86378 | 12.57499 | 35384 ft | 452 kts | 95° |
| 2026-04-30 21:53 | 47.85098 | 12.66600 | 35387 ft | 452 kts | 95° |
| 2026-04-30 21:53 | 47.83803 | 12.75747 | 35421 ft | 452 kts | 95° |
| 2026-04-30 21:54 | 47.82247 | 12.84854 | 35379 ft | 454 kts | 98° |
| 2026-04-30 21:54 | 47.80532 | 12.93904 | 35363 ft | 454 kts | 98° |
| 2026-04-30 21:55 | 47.78841 | 13.02958 | 35374 ft | 454 kts | 98° |
| 2026-04-30 21:55 | 47.77213 | 13.11835 | 35374 ft | 454 kts | 97° |
| 2026-04-30 21:56 | 47.75556 | 13.20889 | 35385 ft | 454 kts | 98° |
| 2026-04-30 21:56 | 47.73892 | 13.29946 | 35385 ft | 454 kts | 97° |
| 2026-04-30 21:57 | 47.72222 | 13.38994 | 35385 ft | 454 kts | 98° |
| 2026-04-30 21:57 | 47.70542 | 13.48045 | 35389 ft | 455 kts | 98° |
| 2026-04-30 21:58 | 47.68854 | 13.57090 | 35438 ft | 455 kts | 98° |
| 2026-04-30 21:58 | 47.67163 | 13.66088 | 35398 ft | 456 kts | 98° |
| 2026-04-30 21:59 | 47.65451 | 13.75158 | 35402 ft | 457 kts | 98° |
| 2026-04-30 22:00 | 47.62878 | 13.88733 | 35410 ft | 456 kts | 98° |
| 2026-04-30 22:00 | 47.60311 | 14.02209 | 35421 ft | 457 kts | 98° |
| 2026-04-30 22:01 | 47.58612 | 14.11290 | 35414 ft | 458 kts | 98° |
| 2026-04-30 22:01 | 47.56970 | 14.20383 | 35417 ft | 457 kts | 97° |
| 2026-04-30 22:02 | 47.55318 | 14.29485 | 35413 ft | 458 kts | 98° |
| 2026-04-30 22:02 | 47.53650 | 14.38577 | 35427 ft | 459 kts | 98° |
| 2026-04-30 22:03 | 47.51958 | 14.47722 | 35415 ft | 462 kts | 98° |
| 2026-04-30 22:03 | 47.50250 | 14.56896 | 35418 ft | 464 kts | 99° |
| 2026-04-30 22:04 | 47.48530 | 14.66086 | 35420 ft | 463 kts | 99° |
| 2026-04-30 22:05 | 47.45942 | 14.79875 | 35423 ft | 465 kts | 99° |
| 2026-04-30 22:05 | 47.44199 | 14.89090 | 35415 ft | 466 kts | 99° |
| 2026-04-30 22:06 | 47.42445 | 14.98309 | 35425 ft | 466 kts | 99° |
| 2026-04-30 22:06 | 47.39805 | 15.12115 | 35435 ft | 466 kts | 99° |
| 2026-04-30 22:07 | 47.38030 | 15.21330 | 35436 ft | 468 kts | 100° |
| 2026-04-30 22:07 | 47.36255 | 15.30510 | 35435 ft | 468 kts | 100° |
| 2026-04-30 22:08 | 47.34463 | 15.39737 | 35434 ft | 468 kts | 100° |
| 2026-04-30 22:08 | 47.32662 | 15.48975 | 35438 ft | 469 kts | 100° |
| 2026-04-30 22:09 | 47.30851 | 15.58202 | 35432 ft | 469 kts | 101° |
| 2026-04-30 22:09 | 47.29029 | 15.67442 | 35431 ft | 469 kts | 101° |
| 2026-04-30 22:10 | 47.27201 | 15.76671 | 35423 ft | 469 kts | 101° |
| 2026-04-30 22:10 | 47.25364 | 15.85901 | 35425 ft | 470 kts | 101° |
| 2026-04-30 22:11 | 47.22593 | 15.99757 | 35417 ft | 473 kts | 101° |
| 2026-04-30 22:12 | 47.20725 | 16.09033 | 35408 ft | 473 kts | 101° |
| 2026-04-30 22:12 | 47.18847 | 16.18312 | 35407 ft | 473 kts | 101° |
| 2026-04-30 22:13 | 47.16964 | 16.27577 | 35401 ft | 473 kts | 101° |
| 2026-04-30 22:13 | 47.15071 | 16.36843 | 35392 ft | 473 kts | 101° |
| 2026-04-30 22:14 | 47.13171 | 16.46108 | 35391 ft | 473 kts | 101° |
| 2026-04-30 22:14 | 47.11265 | 16.55358 | 35393 ft | 474 kts | 101° |
| 2026-04-30 22:15 | 47.09350 | 16.64603 | 35395 ft | 474 kts | 102° |
| 2026-04-30 22:15 | 47.07426 | 16.73859 | 35391 ft | 475 kts | 102° |
| 2026-04-30 22:16 | 47.05491 | 16.83118 | 35392 ft | 475 kts | 102° |
| 2026-04-30 22:17 | 47.01595 | 17.01633 | 35390 ft | 475 kts | 102° |
| 2026-04-30 22:17 | 46.98648 | 17.15529 | 35386 ft | 478 kts | 102° |
| 2026-04-30 22:18 | 46.95673 | 17.29463 | 35387 ft | 478 kts | 103° |
| 2026-04-30 22:19 | 46.92681 | 17.43377 | 35402 ft | 478 kts | 103° |
| 2026-04-30 22:20 | 46.89664 | 17.57321 | 35379 ft | 480 kts | 103° |
| 2026-04-30 22:20 | 46.86627 | 17.71259 | 35374 ft | 480 kts | 103° |
| 2026-04-30 22:21 | 46.84604 | 17.80494 | 35397 ft | 480 kts | 103° |
| 2026-04-30 22:21 | 46.82557 | 17.89799 | 35375 ft | 483 kts | 104° |
| 2026-04-30 22:22 | 46.80496 | 17.99126 | 35371 ft | 483 kts | 104° |
| 2026-04-30 22:22 | 46.78425 | 18.08453 | 35371 ft | 483 kts | 104° |
| 2026-04-30 22:23 | 46.76344 | 18.17778 | 35378 ft | 483 kts | 104° |
| 2026-04-30 22:23 | 46.74254 | 18.27117 | 35375 ft | 486 kts | 104° |
| 2026-04-30 22:24 | 46.72144 | 18.36492 | 35376 ft | 487 kts | 104° |
| 2026-04-30 22:24 | 46.70028 | 18.45852 | 35376 ft | 487 kts | 104° |
| 2026-04-30 22:25 | 46.67904 | 18.55205 | 35400 ft | 486 kts | 105° |
| 2026-04-30 22:25 | 46.65769 | 18.64574 | 35382 ft | 489 kts | 105° |
| 2026-04-30 22:26 | 46.62540 | 18.78658 | 35379 ft | 489 kts | 105° |
| 2026-04-30 22:27 | 46.60379 | 18.88035 | 35379 ft | 489 kts | 105° |
| 2026-04-30 22:27 | 46.57117 | 19.02111 | 35382 ft | 491 kts | 105° |
| 2026-04-30 22:28 | 46.53833 | 19.16193 | 35381 ft | 491 kts | 105° |
| 2026-04-30 22:29 | 46.49423 | 19.34957 | 35378 ft | 492 kts | 106° |
| 2026-04-30 22:31 | 46.41623 | 19.67761 | 35377 ft | 493 kts | 106° |
| 2026-04-30 22:32 | 46.35962 | 19.91268 | 35364 ft | 495 kts | 106° |
| 2026-04-30 22:33 | 46.30620 | 20.13226 | 35355 ft | 495 kts | 107° |
| 2026-04-30 22:35 | 46.24874 | 20.36605 | 35362 ft | 495 kts | 107° |
| 2026-04-30 22:36 | 46.19050 | 20.60059 | 35350 ft | 497 kts | 107° |
| 2026-04-30 22:37 | 46.14290 | 20.78784 | 35345 ft | 498 kts | 109° |
| 2026-04-30 22:38 | 46.09226 | 20.97423 | 35343 ft | 500 kts | 109° |
| 2026-04-30 22:39 | 46.05431 | 21.11405 | 35347 ft | 500 kts | 109° |
| 2026-04-30 22:40 | 45.97803 | 21.39351 | 35331 ft | 500 kts | 109° |
| 2026-04-30 22:41 | 45.91379 | 21.62631 | 35347 ft | 502 kts | 110° |
| 2026-04-30 22:43 | 45.83584 | 21.90586 | 35343 ft | 504 kts | 110° |
| 2026-04-30 22:44 | 45.78332 | 22.09234 | 35348 ft | 505 kts | 110° |
| 2026-04-30 22:45 | 45.70381 | 22.37196 | 35357 ft | 506 kts | 110° |
| 2026-04-30 22:47 | 45.62339 | 22.65152 | 35367 ft | 508 kts | 111° |
| 2026-04-30 22:48 | 45.56930 | 22.83787 | 35373 ft | 508 kts | 111° |
| 2026-04-30 22:49 | 45.48739 | 23.11741 | 35370 ft | 509 kts | 111° |
| 2026-04-30 22:51 | 45.40470 | 23.39640 | 35377 ft | 512 kts | 111° |
| 2026-04-30 22:52 | 45.36296 | 23.53609 | 35373 ft | 511 kts | 111° |
| 2026-04-30 22:53 | 45.30692 | 23.72256 | 35372 ft | 511 kts | 111° |
| 2026-04-30 22:53 | 45.26725 | 23.86314 | 35377 ft | 512 kts | 110° |
| 2026-04-30 22:55 | 45.20135 | 24.09773 | 35368 ft | 513 kts | 110° |
| 2026-04-30 22:56 | 45.14769 | 24.28558 | 35374 ft | 515 kts | 111° |
| 2026-04-30 22:57 | 45.07991 | 24.52054 | 35376 ft | 516 kts | 111° |
| 2026-04-30 22:58 | 45.02521 | 24.70879 | 35360 ft | 518 kts | 111° |
| 2026-04-30 22:59 | 44.94232 | 24.99104 | 35362 ft | 519 kts | 112° |